sensor_id;sensor_type;location;lat;lon;timestamp;temperature;humidity
17851;DHT22;9051;51.548;14.348;2022-12-05T00:00:08;3.70;99.90
17851;DHT22;9051;51.548;14.348;2022-12-05T00:02:40;3.70;99.90
17851;DHT22;9051;51.548;14.348;2022-12-05T00:05:13;3.70;99.90
17851;DHT22;9051;51.548;14.348;2022-12-05T00:07:45;3.70;99.90
17851;DHT22;9051;51.548;14.348;2022-12-05T00:10:17;3.70;99.90
17851;DHT22;9051;51.548;14.348;2022-12-05T00:12:50;3.70;99.90
17851;DHT22;9051;51.548;14.348;2022-12-05T00:15:22;3.80;99.90
17851;DHT22;9051;51.548;14.348;2022-12-05T00:17:54;3.70;99.90
17851;DHT22;9051;51.548;14.348;2022-12-05T00:20:26;3.70;99.90
17851;DHT22;9051;51.548;14.348;2022-12-05T00:22:58;3.70;99.90
17851;DHT22;9051;51.548;14.348;2022-12-05T00:25:30;3.70;99.90
17851;DHT22;9051;51.548;14.348;2022-12-05T00:28:04;3.70;99.90
17851;DHT22;9051;51.548;14.348;2022-12-05T00:30:39;3.80;99.90
17851;DHT22;9051;51.548;14.348;2022-12-05T00:33:11;3.70;99.90
17851;DHT22;9051;51.548;14.348;2022-12-05T00:35:43;3.70;99.90
17851;DHT22;9051;51.548;14.348;2022-12-05T00:38:14;3.70;99.90
17851;DHT22;9051;51.548;14.348;2022-12-05T00:40:46;3.70;99.90
17851;DHT22;9051;51.548;14.348;2022-12-05T00:43:19;3.80;99.90
17851;DHT22;9051;51.548;14.348;2022-12-05T00:45:51;3.80;99.90
17851;DHT22;9051;51.548;14.348;2022-12-05T00:48:23;3.80;99.90
17851;DHT22;9051;51.548;14.348;2022-12-05T00:51:00;3.80;99.90
17851;DHT22;9051;51.548;14.348;2022-12-05T00:53:33;3.80;99.90
17851;DHT22;9051;51.548;14.348;2022-12-05T00:56:07;3.80;99.90
17851;DHT22;9051;51.548;14.348;2022-12-05T00:58:41;3.80;99.90
17851;DHT22;9051;51.548;14.348;2022-12-05T01:01:15;3.80;99.90
17851;DHT22;9051;51.548;14.348;2022-12-05T01:03:47;3.80;99.90
17851;DHT22;9051;51.548;14.348;2022-12-05T01:06:20;3.80;99.90
17851;DHT22;9051;51.548;14.348;2022-12-05T01:08:52;3.80;99.90
17851;DHT22;9051;51.548;14.348;2022-12-05T01:11:25;3.80;99.90
17851;DHT22;9051;51.548;14.348;2022-12-05T01:13:59;3.80;99.90
17851;DHT22;9051;51.548;14.348;2022-12-05T01:16:32;3.80;99.90
17851;DHT22;9051;51.548;14.348;2022-12-05T01:19:07;3.80;99.90
17851;DHT22;9051;51.548;14.348;2022-12-05T01:21:40;3.90;99.90
17851;DHT22;9051;51.548;14.348;2022-12-05T01:24:13;3.80;99.90
17851;DHT22;9051;51.548;14.348;2022-12-05T01:26:45;3.80;99.90
17851;DHT22;9051;51.548;14.348;2022-12-05T01:29:20;3.90;99.90
17851;DHT22;9051;51.548;14.348;2022-12-05T01:31:53;3.90;99.90
17851;DHT22;9051;51.548;14.348;2022-12-05T01:34:25;3.90;99.90
17851;DHT22;9051;51.548;14.348;2022-12-05T01:36:56;3.90;99.90
17851;DHT22;9051;51.548;14.348;2022-12-05T01:39:28;3.90;99.90
17851;DHT22;9051;51.548;14.348;2022-12-05T01:42:00;3.90;99.90
17851;DHT22;9051;51.548;14.348;2022-12-05T01:45:04;3.90;99.90
17851;DHT22;9051;51.548;14.348;2022-12-05T01:47:36;3.90;99.90
17851;DHT22;9051;51.548;14.348;2022-12-05T01:50:09;3.90;99.90
17851;DHT22;9051;51.548;14.348;2022-12-05T01:52:43;3.80;99.90
17851;DHT22;9051;51.548;14.348;2022-12-05T01:55:17;3.90;99.90
17851;DHT22;9051;51.548;14.348;2022-12-05T01:57:49;3.90;99.90
17851;DHT22;9051;51.548;14.348;2022-12-05T02:00:23;3.90;99.90
17851;DHT22;9051;51.548;14.348;2022-12-05T02:02:58;3.90;99.90
17851;DHT22;9051;51.548;14.348;2022-12-05T02:05:33;3.90;99.90
17851;DHT22;9051;51.548;14.348;2022-12-05T02:08:08;3.90;99.90
17851;DHT22;9051;51.548;14.348;2022-12-05T02:10:43;3.90;99.90
17851;DHT22;9051;51.548;14.348;2022-12-05T02:13:32;3.90;99.90
17851;DHT22;9051;51.548;14.348;2022-12-05T02:16:11;3.90;99.90
17851;DHT22;9051;51.548;14.348;2022-12-05T02:18:55;3.90;99.90
17851;DHT22;9051;51.548;14.348;2022-12-05T02:21:49;4.00;99.90
17851;DHT22;9051;51.548;14.348;2022-12-05T02:28:07;3.90;99.90
17851;DHT22;9051;51.548;14.348;2022-12-05T02:30:48;3.90;99.90
17851;DHT22;9051;51.548;14.348;2022-12-05T02:33:27;3.90;99.90
17851;DHT22;9051;51.548;14.348;2022-12-05T02:36:06;3.90;99.90
17851;DHT22;9051;51.548;14.348;2022-12-05T02:38:50;4.00;99.90
17851;DHT22;9051;51.548;14.348;2022-12-05T02:41:26;3.90;99.90
17851;DHT22;9051;51.548;14.348;2022-12-05T02:44:03;4.00;99.90
17851;DHT22;9051;51.548;14.348;2022-12-05T02:46:39;3.90;99.90
17851;DHT22;9051;51.548;14.348;2022-12-05T02:49:15;4.00;99.90
17851;DHT22;9051;51.548;14.348;2022-12-05T02:51:54;3.90;99.90
17851;DHT22;9051;51.548;14.348;2022-12-05T02:54:30;4.00;99.90
17851;DHT22;9051;51.548;14.348;2022-12-05T02:57:04;3.90;99.90
17851;DHT22;9051;51.548;14.348;2022-12-05T02:59:36;4.00;99.90
17851;DHT22;9051;51.548;14.348;2022-12-05T03:02:21;3.90;99.90
17851;DHT22;9051;51.548;14.348;2022-12-05T03:04:54;4.00;99.90
17851;DHT22;9051;51.548;14.348;2022-12-05T03:07:30;4.00;99.90
17851;DHT22;9051;51.548;14.348;2022-12-05T03:10:06;3.90;99.90
17851;DHT22;9051;51.548;14.348;2022-12-05T03:12:40;3.90;99.90
17851;DHT22;9051;51.548;14.348;2022-12-05T03:15:18;3.90;99.90
17851;DHT22;9051;51.548;14.348;2022-12-05T03:17:56;4.00;99.90
17851;DHT22;9051;51.548;14.348;2022-12-05T03:20:33;4.00;99.90
17851;DHT22;9051;51.548;14.348;2022-12-05T03:23:11;4.00;99.90
17851;DHT22;9051;51.548;14.348;2022-12-05T03:25:49;4.00;99.90
17851;DHT22;9051;51.548;14.348;2022-12-05T03:28:27;4.00;99.90
17851;DHT22;9051;51.548;14.348;2022-12-05T03:31:05;4.00;99.90
17851;DHT22;9051;51.548;14.348;2022-12-05T03:33:43;4.00;99.90
17851;DHT22;9051;51.548;14.348;2022-12-05T03:36:19;4.00;99.90
17851;DHT22;9051;51.548;14.348;2022-12-05T03:38:56;4.00;99.90
17851;DHT22;9051;51.548;14.348;2022-12-05T03:41:37;4.00;99.90
17851;DHT22;9051;51.548;14.348;2022-12-05T03:44:13;4.00;99.90
17851;DHT22;9051;51.548;14.348;2022-12-05T04:00:45;4.00;99.90
17851;DHT22;9051;51.548;14.348;2022-12-05T04:03:23;4.00;99.90
17851;DHT22;9051;51.548;14.348;2022-12-05T04:06:00;4.00;99.90
17851;DHT22;9051;51.548;14.348;2022-12-05T04:08:35;4.00;99.90
17851;DHT22;9051;51.548;14.348;2022-12-05T04:11:11;4.00;99.90
17851;DHT22;9051;51.548;14.348;2022-12-05T04:13:47;4.00;99.90
17851;DHT22;9051;51.548;14.348;2022-12-05T04:16:25;4.00;99.90
17851;DHT22;9051;51.548;14.348;2022-12-05T04:19:23;4.00;99.90
17851;DHT22;9051;51.548;14.348;2022-12-05T04:21:56;4.00;99.90
17851;DHT22;9051;51.548;14.348;2022-12-05T04:24:29;4.00;99.90
17851;DHT22;9051;51.548;14.348;2022-12-05T04:27:22;4.00;99.90
17851;DHT22;9051;51.548;14.348;2022-12-05T04:30:02;4.00;99.90
17851;DHT22;9051;51.548;14.348;2022-12-05T04:32:41;4.00;99.90
17851;DHT22;9051;51.548;14.348;2022-12-05T04:35:19;4.00;99.90
17851;DHT22;9051;51.548;14.348;2022-12-05T04:37:59;4.00;99.90
17851;DHT22;9051;51.548;14.348;2022-12-05T04:40:34;4.00;99.90
17851;DHT22;9051;51.548;14.348;2022-12-05T04:43:09;4.00;99.90
17851;DHT22;9051;51.548;14.348;2022-12-05T04:45:44;4.00;99.90
17851;DHT22;9051;51.548;14.348;2022-12-05T04:48:17;4.00;99.90
17851;DHT22;9051;51.548;14.348;2022-12-05T04:50:50;4.00;99.90
17851;DHT22;9051;51.548;14.348;2022-12-05T04:53:27;4.00;99.90
17851;DHT22;9051;51.548;14.348;2022-12-05T04:56:02;4.00;99.90
17851;DHT22;9051;51.548;14.348;2022-12-05T04:58:35;4.00;99.90
17851;DHT22;9051;51.548;14.348;2022-12-05T05:01:10;4.00;99.90
17851;DHT22;9051;51.548;14.348;2022-12-05T05:03:50;4.00;99.90
17851;DHT22;9051;51.548;14.348;2022-12-05T05:06:23;4.00;99.90
17851;DHT22;9051;51.548;14.348;2022-12-05T05:08:57;4.00;99.90
17851;DHT22;9051;51.548;14.348;2022-12-05T05:11:31;4.00;99.90
17851;DHT22;9051;51.548;14.348;2022-12-05T05:14:03;4.00;99.90
17851;DHT22;9051;51.548;14.348;2022-12-05T05:16:38;4.00;99.90
17851;DHT22;9051;51.548;14.348;2022-12-05T05:19:11;4.00;99.90
17851;DHT22;9051;51.548;14.348;2022-12-05T05:21:43;4.00;99.90
17851;DHT22;9051;51.548;14.348;2022-12-05T05:24:15;4.10;99.90
17851;DHT22;9051;51.548;14.348;2022-12-05T05:26:48;4.00;99.90
17851;DHT22;9051;51.548;14.348;2022-12-05T05:29:20;4.10;99.90
17851;DHT22;9051;51.548;14.348;2022-12-05T05:31:52;4.00;99.90
17851;DHT22;9051;51.548;14.348;2022-12-05T05:34:25;4.10;99.90
17851;DHT22;9051;51.548;14.348;2022-12-05T05:36:58;4.00;99.90
17851;DHT22;9051;51.548;14.348;2022-12-05T05:39:30;4.00;99.90
17851;DHT22;9051;51.548;14.348;2022-12-05T05:42:03;4.10;99.90
17851;DHT22;9051;51.548;14.348;2022-12-05T05:44:34;4.10;99.90
17851;DHT22;9051;51.548;14.348;2022-12-05T05:47:07;4.10;99.90
17851;DHT22;9051;51.548;14.348;2022-12-05T05:49:40;4.00;99.90
17851;DHT22;9051;51.548;14.348;2022-12-05T05:52:12;4.00;99.90
17851;DHT22;9051;51.548;14.348;2022-12-05T05:54:44;4.10;99.90
17851;DHT22;9051;51.548;14.348;2022-12-05T05:57:16;4.10;99.90
17851;DHT22;9051;51.548;14.348;2022-12-05T05:59:49;4.00;99.90
17851;DHT22;9051;51.548;14.348;2022-12-05T06:02:21;4.00;99.90
17851;DHT22;9051;51.548;14.348;2022-12-05T06:04:55;4.10;99.90
17851;DHT22;9051;51.548;14.348;2022-12-05T06:11:11;4.10;99.90
17851;DHT22;9051;51.548;14.348;2022-12-05T06:14:01;4.10;99.90
17851;DHT22;9051;51.548;14.348;2022-12-05T06:16:47;4.10;99.90
17851;DHT22;9051;51.548;14.348;2022-12-05T06:20:01;4.10;99.90
17851;DHT22;9051;51.548;14.348;2022-12-05T06:23:01;4.00;99.90
17851;DHT22;9051;51.548;14.348;2022-12-05T06:25:47;4.00;99.90
17851;DHT22;9051;51.548;14.348;2022-12-05T06:28:24;4.00;99.90
17851;DHT22;9051;51.548;14.348;2022-12-05T06:31:05;4.00;99.90
17851;DHT22;9051;51.548;14.348;2022-12-05T06:33:57;4.10;99.90
17851;DHT22;9051;51.548;14.348;2022-12-05T06:36:36;4.10;99.90
17851;DHT22;9051;51.548;14.348;2022-12-05T06:39:17;4.10;99.90
17851;DHT22;9051;51.548;14.348;2022-12-05T06:41:53;4.10;99.90
17851;DHT22;9051;51.548;14.348;2022-12-05T06:44:28;4.10;99.90
17851;DHT22;9051;51.548;14.348;2022-12-05T06:47:12;4.10;99.90
17851;DHT22;9051;51.548;14.348;2022-12-05T06:49:55;4.10;99.90
17851;DHT22;9051;51.548;14.348;2022-12-05T06:52:40;4.10;99.90
17851;DHT22;9051;51.548;14.348;2022-12-05T06:55:18;4.10;99.90
17851;DHT22;9051;51.548;14.348;2022-12-05T06:58:11;4.10;99.90
17851;DHT22;9051;51.548;14.348;2022-12-05T07:00:47;4.10;99.90
17851;DHT22;9051;51.548;14.348;2022-12-05T07:03:36;4.10;99.90
17851;DHT22;9051;51.548;14.348;2022-12-05T07:06:08;4.10;99.90
17851;DHT22;9051;51.548;14.348;2022-12-05T07:08:43;4.00;99.90
17851;DHT22;9051;51.548;14.348;2022-12-05T07:11:15;4.00;99.90
17851;DHT22;9051;51.548;14.348;2022-12-05T07:13:54;4.00;99.90
17851;DHT22;9051;51.548;14.348;2022-12-05T07:16:26;4.10;99.90
17851;DHT22;9051;51.548;14.348;2022-12-05T07:18:58;4.00;99.90
17851;DHT22;9051;51.548;14.348;2022-12-05T07:21:30;4.00;99.90
17851;DHT22;9051;51.548;14.348;2022-12-05T07:24:04;4.00;99.90
17851;DHT22;9051;51.548;14.348;2022-12-05T07:26:36;4.00;99.90
17851;DHT22;9051;51.548;14.348;2022-12-05T07:29:09;4.00;99.90
17851;DHT22;9051;51.548;14.348;2022-12-05T07:31:41;4.00;99.90
17851;DHT22;9051;51.548;14.348;2022-12-05T07:34:13;4.10;99.90
17851;DHT22;9051;51.548;14.348;2022-12-05T07:36:44;4.10;99.90
17851;DHT22;9051;51.548;14.348;2022-12-05T07:39:18;4.10;99.90
17851;DHT22;9051;51.548;14.348;2022-12-05T07:41:50;4.10;99.90
17851;DHT22;9051;51.548;14.348;2022-12-05T07:44:21;4.10;99.90
17851;DHT22;9051;51.548;14.348;2022-12-05T07:46:53;4.20;99.90
17851;DHT22;9051;51.548;14.348;2022-12-05T07:49:26;4.20;99.90
17851;DHT22;9051;51.548;14.348;2022-12-05T07:51:59;4.10;99.90
17851;DHT22;9051;51.548;14.348;2022-12-05T07:54:33;4.10;99.90
17851;DHT22;9051;51.548;14.348;2022-12-05T07:57:05;4.10;99.90
17851;DHT22;9051;51.548;14.348;2022-12-05T07:59:37;4.20;99.90
17851;DHT22;9051;51.548;14.348;2022-12-05T08:02:08;4.10;99.90
17851;DHT22;9051;51.548;14.348;2022-12-05T08:04:41;4.20;99.90
17851;DHT22;9051;51.548;14.348;2022-12-05T08:07:13;4.20;99.90
17851;DHT22;9051;51.548;14.348;2022-12-05T08:09:46;4.20;99.90
17851;DHT22;9051;51.548;14.348;2022-12-05T08:12:18;4.20;99.90
17851;DHT22;9051;51.548;14.348;2022-12-05T08:14:50;4.20;99.90
17851;DHT22;9051;51.548;14.348;2022-12-05T08:17:22;4.20;99.90
17851;DHT22;9051;51.548;14.348;2022-12-05T08:19:54;4.20;99.90
17851;DHT22;9051;51.548;14.348;2022-12-05T08:22:26;4.30;99.90
17851;DHT22;9051;51.548;14.348;2022-12-05T08:25:00;4.30;99.90
17851;DHT22;9051;51.548;14.348;2022-12-05T08:27:31;4.30;99.90
17851;DHT22;9051;51.548;14.348;2022-12-05T08:30:05;4.30;99.90
17851;DHT22;9051;51.548;14.348;2022-12-05T08:32:40;4.40;99.90
17851;DHT22;9051;51.548;14.348;2022-12-05T08:35:12;4.30;99.90
17851;DHT22;9051;51.548;14.348;2022-12-05T08:37:46;4.30;99.90
17851;DHT22;9051;51.548;14.348;2022-12-05T08:40:19;4.30;99.90
17851;DHT22;9051;51.548;14.348;2022-12-05T08:42:51;4.30;99.90
17851;DHT22;9051;51.548;14.348;2022-12-05T08:45:23;4.40;99.90
17851;DHT22;9051;51.548;14.348;2022-12-05T08:47:55;4.40;99.90
17851;DHT22;9051;51.548;14.348;2022-12-05T08:50:27;4.40;99.90
17851;DHT22;9051;51.548;14.348;2022-12-05T08:52:58;4.40;99.90
17851;DHT22;9051;51.548;14.348;2022-12-05T08:55:33;4.40;99.90
17851;DHT22;9051;51.548;14.348;2022-12-05T08:58:05;4.50;99.90
17851;DHT22;9051;51.548;14.348;2022-12-05T09:00:38;4.50;99.90
17851;DHT22;9051;51.548;14.348;2022-12-05T09:03:14;4.50;99.90
17851;DHT22;9051;51.548;14.348;2022-12-05T09:05:46;4.50;99.90
17851;DHT22;9051;51.548;14.348;2022-12-05T09:08:18;4.50;99.90
17851;DHT22;9051;51.548;14.348;2022-12-05T09:10:51;4.50;99.90
17851;DHT22;9051;51.548;14.348;2022-12-05T09:13:23;4.60;99.90
17851;DHT22;9051;51.548;14.348;2022-12-05T09:15:56;4.60;99.90
17851;DHT22;9051;51.548;14.348;2022-12-05T09:18:29;4.60;99.90
17851;DHT22;9051;51.548;14.348;2022-12-05T09:21:05;4.60;99.90
17851;DHT22;9051;51.548;14.348;2022-12-05T09:23:37;4.60;99.90
17851;DHT22;9051;51.548;14.348;2022-12-05T09:26:12;4.60;99.90
17851;DHT22;9051;51.548;14.348;2022-12-05T09:28:45;4.60;99.90
17851;DHT22;9051;51.548;14.348;2022-12-05T09:31:19;4.60;99.90
17851;DHT22;9051;51.548;14.348;2022-12-05T09:33:51;4.70;99.90
17851;DHT22;9051;51.548;14.348;2022-12-05T09:36:25;4.60;99.90
17851;DHT22;9051;51.548;14.348;2022-12-05T09:38:59;4.60;99.90
17851;DHT22;9051;51.548;14.348;2022-12-05T09:41:48;4.60;99.90
17851;DHT22;9051;51.548;14.348;2022-12-05T09:44:44;4.70;99.90
17851;DHT22;9051;51.548;14.348;2022-12-05T09:47:28;4.60;99.90
17851;DHT22;9051;51.548;14.348;2022-12-05T09:50:12;4.70;99.90
17851;DHT22;9051;51.548;14.348;2022-12-05T09:52:57;4.70;99.90
17851;DHT22;9051;51.548;14.348;2022-12-05T09:55:37;4.70;99.90
17851;DHT22;9051;51.548;14.348;2022-12-05T09:58:36;4.70;99.90
17851;DHT22;9051;51.548;14.348;2022-12-05T10:01:31;4.80;99.90
17851;DHT22;9051;51.548;14.348;2022-12-05T10:04:29;4.80;99.90
17851;DHT22;9051;51.548;14.348;2022-12-05T10:07:08;4.80;99.90
17851;DHT22;9051;51.548;14.348;2022-12-05T10:09:52;4.70;99.90
17851;DHT22;9051;51.548;14.348;2022-12-05T10:12:46;4.80;99.90
17851;DHT22;9051;51.548;14.348;2022-12-05T10:15:29;4.80;99.90
17851;DHT22;9051;51.548;14.348;2022-12-05T10:18:03;4.80;99.90
17851;DHT22;9051;51.548;14.348;2022-12-05T10:20:43;4.80;99.90
17851;DHT22;9051;51.548;14.348;2022-12-05T10:23:21;4.90;99.90
17851;DHT22;9051;51.548;14.348;2022-12-05T10:25:57;4.90;99.90
17851;DHT22;9051;51.548;14.348;2022-12-05T10:28:34;4.90;99.90
17851;DHT22;9051;51.548;14.348;2022-12-05T10:31:13;5.00;99.90
17851;DHT22;9051;51.548;14.348;2022-12-05T10:33:52;5.00;99.90
17851;DHT22;9051;51.548;14.348;2022-12-05T10:36:25;5.10;99.90
17851;DHT22;9051;51.548;14.348;2022-12-05T10:38:58;5.10;99.90
17851;DHT22;9051;51.548;14.348;2022-12-05T10:41:30;5.10;99.90
17851;DHT22;9051;51.548;14.348;2022-12-05T10:44:04;5.10;99.90
17851;DHT22;9051;51.548;14.348;2022-12-05T10:46:52;5.10;99.90
17851;DHT22;9051;51.548;14.348;2022-12-05T10:49:25;5.10;99.90
17851;DHT22;9051;51.548;14.348;2022-12-05T10:51:58;5.20;99.90
17851;DHT22;9051;51.548;14.348;2022-12-05T10:54:33;5.20;99.90
17851;DHT22;9051;51.548;14.348;2022-12-05T10:57:21;5.10;99.90
17851;DHT22;9051;51.548;14.348;2022-12-05T10:59:53;5.10;99.90
17851;DHT22;9051;51.548;14.348;2022-12-05T11:02:31;5.20;99.90
17851;DHT22;9051;51.548;14.348;2022-12-05T11:05:05;5.20;99.90
17851;DHT22;9051;51.548;14.348;2022-12-05T11:07:45;5.20;99.90
17851;DHT22;9051;51.548;14.348;2022-12-05T11:10:21;5.20;99.90
17851;DHT22;9051;51.548;14.348;2022-12-05T11:12:57;5.20;99.90
17851;DHT22;9051;51.548;14.348;2022-12-05T11:15:30;5.10;99.90
17851;DHT22;9051;51.548;14.348;2022-12-05T11:18:24;5.20;99.90
17851;DHT22;9051;51.548;14.348;2022-12-05T11:21:09;5.20;99.90
17851;DHT22;9051;51.548;14.348;2022-12-05T11:23:44;5.20;99.90
17851;DHT22;9051;51.548;14.348;2022-12-05T11:26:32;5.20;99.90
17851;DHT22;9051;51.548;14.348;2022-12-05T11:29:31;5.20;99.90
17851;DHT22;9051;51.548;14.348;2022-12-05T11:32:05;5.20;99.90
17851;DHT22;9051;51.548;14.348;2022-12-05T11:34:51;5.20;99.90
17851;DHT22;9051;51.548;14.348;2022-12-05T11:37:28;5.30;99.90
17851;DHT22;9051;51.548;14.348;2022-12-05T11:40:13;5.30;99.90
17851;DHT22;9051;51.548;14.348;2022-12-05T11:43:04;5.30;99.90
17851;DHT22;9051;51.548;14.348;2022-12-05T11:45:51;5.30;99.90
17851;DHT22;9051;51.548;14.348;2022-12-05T11:48:49;5.30;99.90
17851;DHT22;9051;51.548;14.348;2022-12-05T11:51:35;5.40;99.90
17851;DHT22;9051;51.548;14.348;2022-12-05T11:57:18;5.50;99.90
17851;DHT22;9051;51.548;14.348;2022-12-05T12:00:18;5.60;99.90
17851;DHT22;9051;51.548;14.348;2022-12-05T12:06:18;5.60;99.90
17851;DHT22;9051;51.548;14.348;2022-12-05T12:09:09;5.70;99.90
17851;DHT22;9051;51.548;14.348;2022-12-05T12:11:51;5.70;99.90
17851;DHT22;9051;51.548;14.348;2022-12-05T12:14:34;5.70;99.90
17851;DHT22;9051;51.548;14.348;2022-12-05T12:17:18;5.80;99.90
17851;DHT22;9051;51.548;14.348;2022-12-05T12:20:07;5.80;99.90
17851;DHT22;9051;51.548;14.348;2022-12-05T12:22:58;5.80;99.90
17851;DHT22;9051;51.548;14.348;2022-12-05T12:25:41;5.70;99.90
17851;DHT22;9051;51.548;14.348;2022-12-05T12:28:36;5.80;99.90
17851;DHT22;9051;51.548;14.348;2022-12-05T12:31:26;5.80;99.90
17851;DHT22;9051;51.548;14.348;2022-12-05T12:34:13;5.70;99.90
17851;DHT22;9051;51.548;14.348;2022-12-05T12:36:57;5.70;99.90
17851;DHT22;9051;51.548;14.348;2022-12-05T12:39:39;5.70;99.90
17851;DHT22;9051;51.548;14.348;2022-12-05T12:42:20;5.70;99.90
17851;DHT22;9051;51.548;14.348;2022-12-05T12:45:34;5.70;99.90
17851;DHT22;9051;51.548;14.348;2022-12-05T12:48:19;5.70;99.90
17851;DHT22;9051;51.548;14.348;2022-12-05T12:50:53;5.70;99.90
17851;DHT22;9051;51.548;14.348;2022-12-05T12:53:40;5.80;99.90
17851;DHT22;9051;51.548;14.348;2022-12-05T12:56:29;5.80;99.90
17851;DHT22;9051;51.548;14.348;2022-12-05T12:59:20;5.80;99.90
17851;DHT22;9051;51.548;14.348;2022-12-05T13:01:59;5.80;99.90
17851;DHT22;9051;51.548;14.348;2022-12-05T13:04:40;5.80;99.90
17851;DHT22;9051;51.548;14.348;2022-12-05T13:07:17;5.80;99.90
17851;DHT22;9051;51.548;14.348;2022-12-05T13:09:56;5.80;99.90
17851;DHT22;9051;51.548;14.348;2022-12-05T13:12:33;5.80;99.90
17851;DHT22;9051;51.548;14.348;2022-12-05T13:15:13;5.80;99.90
17851;DHT22;9051;51.548;14.348;2022-12-05T13:17:49;5.80;99.90
17851;DHT22;9051;51.548;14.348;2022-12-05T13:20:26;5.80;99.90
17851;DHT22;9051;51.548;14.348;2022-12-05T13:23:02;5.80;99.90
17851;DHT22;9051;51.548;14.348;2022-12-05T13:25:39;5.80;99.90
17851;DHT22;9051;51.548;14.348;2022-12-05T13:28:27;5.80;99.90
17851;DHT22;9051;51.548;14.348;2022-12-05T13:31:00;5.80;99.90
17851;DHT22;9051;51.548;14.348;2022-12-05T13:33:35;5.80;99.90
17851;DHT22;9051;51.548;14.348;2022-12-05T13:36:15;5.90;99.90
17851;DHT22;9051;51.548;14.348;2022-12-05T13:39:15;5.90;99.90
17851;DHT22;9051;51.548;14.348;2022-12-05T13:42:19;5.80;99.90
17851;DHT22;9051;51.548;14.348;2022-12-05T13:44:56;5.80;99.90
17851;DHT22;9051;51.548;14.348;2022-12-05T13:47:39;5.90;99.90
17851;DHT22;9051;51.548;14.348;2022-12-05T13:50:32;5.80;99.90
17851;DHT22;9051;51.548;14.348;2022-12-05T13:53:21;5.80;99.90
17851;DHT22;9051;51.548;14.348;2022-12-05T13:55:56;5.80;99.90
17851;DHT22;9051;51.548;14.348;2022-12-05T13:58:51;5.80;99.90
17851;DHT22;9051;51.548;14.348;2022-12-05T14:01:42;5.80;99.90
17851;DHT22;9051;51.548;14.348;2022-12-05T14:04:40;5.80;99.90
17851;DHT22;9051;51.548;14.348;2022-12-05T14:07:44;5.80;99.90
17851;DHT22;9051;51.548;14.348;2022-12-05T14:10:20;5.80;99.90
17851;DHT22;9051;51.548;14.348;2022-12-05T14:12:54;5.80;99.90
17851;DHT22;9051;51.548;14.348;2022-12-05T14:15:34;5.80;99.90
17851;DHT22;9051;51.548;14.348;2022-12-05T14:18:13;5.80;99.90
17851;DHT22;9051;51.548;14.348;2022-12-05T14:21:02;5.80;99.90
17851;DHT22;9051;51.548;14.348;2022-12-05T14:23:54;5.80;99.90
17851;DHT22;9051;51.548;14.348;2022-12-05T14:26:39;5.80;99.90
17851;DHT22;9051;51.548;14.348;2022-12-05T14:29:18;5.80;99.90
17851;DHT22;9051;51.548;14.348;2022-12-05T14:32:04;5.80;99.90
17851;DHT22;9051;51.548;14.348;2022-12-05T14:34:52;5.80;99.90
17851;DHT22;9051;51.548;14.348;2022-12-05T14:37:29;5.80;99.90
17851;DHT22;9051;51.548;14.348;2022-12-05T14:40:17;5.80;99.90
17851;DHT22;9051;51.548;14.348;2022-12-05T14:42:53;5.80;99.90
17851;DHT22;9051;51.548;14.348;2022-12-05T14:45:33;5.80;99.90
17851;DHT22;9051;51.548;14.348;2022-12-05T14:48:32;5.80;99.90
17851;DHT22;9051;51.548;14.348;2022-12-05T14:54:13;5.80;99.90
17851;DHT22;9051;51.548;14.348;2022-12-05T14:56:48;5.80;99.90
17851;DHT22;9051;51.548;14.348;2022-12-05T14:59:26;5.90;99.90
17851;DHT22;9051;51.548;14.348;2022-12-05T15:05:56;5.80;99.90
17851;DHT22;9051;51.548;14.348;2022-12-05T15:08:44;5.80;99.90
17851;DHT22;9051;51.548;14.348;2022-12-05T15:11:18;5.80;99.90
17851;DHT22;9051;51.548;14.348;2022-12-05T15:14:02;5.90;99.90
17851;DHT22;9051;51.548;14.348;2022-12-05T15:16:42;5.80;99.90
17851;DHT22;9051;51.548;14.348;2022-12-05T15:19:21;5.80;99.90
17851;DHT22;9051;51.548;14.348;2022-12-05T15:21:57;5.80;99.90
17851;DHT22;9051;51.548;14.348;2022-12-05T15:24:36;5.80;99.90
17851;DHT22;9051;51.548;14.348;2022-12-05T15:27:10;5.80;99.90
17851;DHT22;9051;51.548;14.348;2022-12-05T15:29:43;5.80;99.90
17851;DHT22;9051;51.548;14.348;2022-12-05T15:32:18;5.80;99.90
17851;DHT22;9051;51.548;14.348;2022-12-05T15:34:56;5.80;99.90
17851;DHT22;9051;51.548;14.348;2022-12-05T15:37:36;5.80;99.90
17851;DHT22;9051;51.548;14.348;2022-12-05T15:40:14;5.80;99.90
17851;DHT22;9051;51.548;14.348;2022-12-05T15:42:48;5.80;99.90
17851;DHT22;9051;51.548;14.348;2022-12-05T15:45:23;5.90;99.90
17851;DHT22;9051;51.548;14.348;2022-12-05T15:48:12;5.80;99.90
17851;DHT22;9051;51.548;14.348;2022-12-05T15:50:47;5.90;99.90
17851;DHT22;9051;51.548;14.348;2022-12-05T15:53:27;5.90;99.90
17851;DHT22;9051;51.548;14.348;2022-12-05T15:56:04;6.00;99.90
17851;DHT22;9051;51.548;14.348;2022-12-05T15:58:40;6.00;99.90
17851;DHT22;9051;51.548;14.348;2022-12-05T16:01:17;6.00;99.90
17851;DHT22;9051;51.548;14.348;2022-12-05T16:03:55;6.00;99.90
17851;DHT22;9051;51.548;14.348;2022-12-05T16:06:32;6.00;99.90
17851;DHT22;9051;51.548;14.348;2022-12-05T16:09:18;6.00;99.90
17851;DHT22;9051;51.548;14.348;2022-12-05T16:11:52;6.00;99.90
17851;DHT22;9051;51.548;14.348;2022-12-05T16:14:28;6.00;99.90
17851;DHT22;9051;51.548;14.348;2022-12-05T16:17:01;6.00;99.90
17851;DHT22;9051;51.548;14.348;2022-12-05T16:19:34;5.90;99.90
17851;DHT22;9051;51.548;14.348;2022-12-05T16:22:15;5.90;99.90
17851;DHT22;9051;51.548;14.348;2022-12-05T16:24:59;5.90;99.90
17851;DHT22;9051;51.548;14.348;2022-12-05T16:27:34;6.00;99.90
17851;DHT22;9051;51.548;14.348;2022-12-05T16:30:17;5.80;99.90
17851;DHT22;9051;51.548;14.348;2022-12-05T16:32:57;5.90;99.90
17851;DHT22;9051;51.548;14.348;2022-12-05T16:35:33;5.90;99.90
17851;DHT22;9051;51.548;14.348;2022-12-05T16:38:14;5.90;99.90
17851;DHT22;9051;51.548;14.348;2022-12-05T16:40:58;5.80;99.90
17851;DHT22;9051;51.548;14.348;2022-12-05T16:43:42;5.80;99.90
17851;DHT22;9051;51.548;14.348;2022-12-05T16:46:43;5.80;99.90
17851;DHT22;9051;51.548;14.348;2022-12-05T16:49:39;5.70;99.90
17851;DHT22;9051;51.548;14.348;2022-12-05T16:52:14;5.70;99.90
17851;DHT22;9051;51.548;14.348;2022-12-05T16:54:47;5.70;99.90
17851;DHT22;9051;51.548;14.348;2022-12-05T16:57:21;5.70;99.90
17851;DHT22;9051;51.548;14.348;2022-12-05T16:59:56;5.70;99.90
17851;DHT22;9051;51.548;14.348;2022-12-05T17:02:31;5.70;99.90
17851;DHT22;9051;51.548;14.348;2022-12-05T17:05:12;5.70;99.90
17851;DHT22;9051;51.548;14.348;2022-12-05T17:07:45;5.80;99.90
17851;DHT22;9051;51.548;14.348;2022-12-05T17:10:18;5.80;99.90
17851;DHT22;9051;51.548;14.348;2022-12-05T17:12:52;5.70;99.90
17851;DHT22;9051;51.548;14.348;2022-12-05T17:15:26;5.70;99.90
17851;DHT22;9051;51.548;14.348;2022-12-05T17:18:09;5.70;99.90
17851;DHT22;9051;51.548;14.348;2022-12-05T17:20:47;5.60;99.90
17851;DHT22;9051;51.548;14.348;2022-12-05T17:23:21;5.60;99.90
17851;DHT22;9051;51.548;14.348;2022-12-05T17:25:55;5.60;99.90
17851;DHT22;9051;51.548;14.348;2022-12-05T17:28:28;5.70;99.90